sensor_id;sensor_type;location;lat;lon;timestamp;P1;durP1;ratioP1;P2;durP2;ratioP2
34741;SDS011;20968;42.696;23.360;2023-12-04T00:01:34;460.85;;;124.68;;
34741;SDS011;20968;42.696;23.360;2023-12-04T00:04:00;615.72;;;126.30;;
34741;SDS011;20968;42.696;23.360;2023-12-04T00:06:26;114.10;;;60.95;;
34741;SDS011;20968;42.696;23.360;2023-12-04T00:08:52;130.15;;;69.05;;
34741;SDS011;20968;42.696;23.360;2023-12-04T00:11:17;820.75;;;141.30;;
34741;SDS011;20968;42.696;23.360;2023-12-04T00:13:43;1001.70;;;185.27;;
34741;SDS011;20968;42.696;23.360;2023-12-04T00:16:08;1004.65;;;175.27;;
34741;SDS011;20968;42.696;23.360;2023-12-04T00:18:34;153.65;;;81.20;;
34741;SDS011;20968;42.696;23.360;2023-12-04T00:20:59;297.60;;;98.70;;
34741;SDS011;20968;42.696;23.360;2023-12-04T00:23:24;333.17;;;93.82;;
34741;SDS011;20968;42.696;23.360;2023-12-04T00:25:50;126.60;;;63.13;;
34741;SDS011;20968;42.696;23.360;2023-12-04T00:28:15;722.72;;;160.98;;
34741;SDS011;20968;42.696;23.360;2023-12-04T00:30:41;87.38;;;59.35;;
34741;SDS011;20968;42.696;23.360;2023-12-04T00:33:06;434.98;;;84.32;;
34741;SDS011;20968;42.696;23.360;2023-12-04T00:35:32;673.88;;;140.60;;
34741;SDS011;20968;42.696;23.360;2023-12-04T00:37:57;68.50;;;47.40;;
34741;SDS011;20968;42.696;23.360;2023-12-04T00:40:23;495.90;;;106.45;;
34741;SDS011;20968;42.696;23.360;2023-12-04T00:42:48;625.95;;;126.70;;
34741;SDS011;20968;42.696;23.360;2023-12-04T00:45:13;275.42;;;67.80;;
34741;SDS011;20968;42.696;23.360;2023-12-04T00:47:39;72.28;;;49.60;;
34741;SDS011;20968;42.696;23.360;2023-12-04T00:50:04;135.23;;;61.33;;
34741;SDS011;20968;42.696;23.360;2023-12-04T00:52:30;182.93;;;79.35;;
34741;SDS011;20968;42.696;23.360;2023-12-04T00:54:55;427.40;;;109.60;;
34741;SDS011;20968;42.696;23.360;2023-12-04T00:57:21;71.50;;;41.92;;
34741;SDS011;20968;42.696;23.360;2023-12-04T00:59:46;604.72;;;136.63;;
34741;SDS011;20968;42.696;23.360;2023-12-04T01:02:12;432.48;;;96.40;;
34741;SDS011;20968;42.696;23.360;2023-12-04T01:04:40;200.38;;;62.10;;
34741;SDS011;20968;42.696;23.360;2023-12-04T01:07:08;378.67;;;102.57;;
34741;SDS011;20968;42.696;23.360;2023-12-04T01:09:37;370.48;;;96.75;;
34741;SDS011;20968;42.696;23.360;2023-12-04T01:12:03;269.40;;;85.80;;
34741;SDS011;20968;42.696;23.360;2023-12-04T01:14:29;202.85;;;65.28;;
34741;SDS011;20968;42.696;23.360;2023-12-04T01:16:55;990.75;;;199.07;;
34741;SDS011;20968;42.696;23.360;2023-12-04T01:19:21;187.27;;;67.72;;
34741;SDS011;20968;42.696;23.360;2023-12-04T01:21:46;176.20;;;91.60;;
34741;SDS011;20968;42.696;23.360;2023-12-04T01:24:11;292.00;;;82.95;;
34741;SDS011;20968;42.696;23.360;2023-12-04T01:26:39;108.63;;;52.65;;
34741;SDS011;20968;42.696;23.360;2023-12-04T01:29:05;296.58;;;101.90;;
34741;SDS011;20968;42.696;23.360;2023-12-04T01:31:30;161.20;;;79.43;;
34741;SDS011;20968;42.696;23.360;2023-12-04T01:33:57;1319.80;;;184.18;;
34741;SDS011;20968;42.696;23.360;2023-12-04T01:36:22;757.45;;;130.30;;
34741;SDS011;20968;42.696;23.360;2023-12-04T01:38:48;237.90;;;89.18;;
34741;SDS011;20968;42.696;23.360;2023-12-04T01:41:13;1220.80;;;184.73;;
34741;SDS011;20968;42.696;23.360;2023-12-04T01:43:38;541.25;;;128.23;;
34741;SDS011;20968;42.696;23.360;2023-12-04T01:46:04;984.95;;;195.25;;
34741;SDS011;20968;42.696;23.360;2023-12-04T01:48:30;676.10;;;144.65;;
34741;SDS011;20968;42.696;23.360;2023-12-04T01:50:56;110.05;;;52.40;;
34741;SDS011;20968;42.696;23.360;2023-12-04T01:53:25;254.95;;;112.72;;
34741;SDS011;20968;42.696;23.360;2023-12-04T01:55:51;467.48;;;135.10;;
34741;SDS011;20968;42.696;23.360;2023-12-04T01:58:16;87.53;;;60.22;;
34741;SDS011;20968;42.696;23.360;2023-12-04T02:00:42;78.90;;;48.38;;
34741;SDS011;20968;42.696;23.360;2023-12-04T02:03:08;195.50;;;67.43;;
34741;SDS011;20968;42.696;23.360;2023-12-04T02:05:34;353.83;;;108.32;;
34741;SDS011;20968;42.696;23.360;2023-12-04T02:08:00;1088.70;;;154.02;;
34741;SDS011;20968;42.696;23.360;2023-12-04T02:10:26;196.90;;;46.83;;
34741;SDS011;20968;42.696;23.360;2023-12-04T02:12:51;237.23;;;75.38;;
34741;SDS011;20968;42.696;23.360;2023-12-04T02:15:17;264.75;;;97.65;;
34741;SDS011;20968;42.696;23.360;2023-12-04T02:17:42;246.38;;;89.03;;
34741;SDS011;20968;42.696;23.360;2023-12-04T02:20:09;432.40;;;126.03;;
34741;SDS011;20968;42.696;23.360;2023-12-04T02:22:34;274.63;;;77.35;;
34741;SDS011;20968;42.696;23.360;2023-12-04T02:25:00;202.30;;;61.10;;
34741;SDS011;20968;42.696;23.360;2023-12-04T02:27:29;588.90;;;104.47;;
34741;SDS011;20968;42.696;23.360;2023-12-04T02:30:16;452.60;;;140.40;;
34741;SDS011;20968;42.696;23.360;2023-12-04T02:32:45;439.50;;;93.30;;
34741;SDS011;20968;42.696;23.360;2023-12-04T02:35:11;1079.03;;;205.82;;
34741;SDS011;20968;42.696;23.360;2023-12-04T02:37:39;947.63;;;187.15;;
34741;SDS011;20968;42.696;23.360;2023-12-04T02:40:06;164.68;;;78.80;;
34741;SDS011;20968;42.696;23.360;2023-12-04T02:42:32;93.00;;;66.75;;
34741;SDS011;20968;42.696;23.360;2023-12-04T02:44:57;186.55;;;73.47;;
34741;SDS011;20968;42.696;23.360;2023-12-04T02:47:23;150.68;;;100.32;;
34741;SDS011;20968;42.696;23.360;2023-12-04T02:49:48;176.00;;;88.75;;
34741;SDS011;20968;42.696;23.360;2023-12-04T02:52:14;109.78;;;66.25;;
34741;SDS011;20968;42.696;23.360;2023-12-04T02:54:39;472.35;;;148.57;;
34741;SDS011;20968;42.696;23.360;2023-12-04T02:57:05;111.00;;;72.28;;
34741;SDS011;20968;42.696;23.360;2023-12-04T02:59:30;115.50;;;78.57;;
34741;SDS011;20968;42.696;23.360;2023-12-04T03:01:55;177.15;;;64.43;;
34741;SDS011;20968;42.696;23.360;2023-12-04T03:04:21;467.33;;;109.97;;
34741;SDS011;20968;42.696;23.360;2023-12-04T03:06:46;125.65;;;79.20;;
34741;SDS011;20968;42.696;23.360;2023-12-04T03:09:12;405.48;;;119.30;;
34741;SDS011;20968;42.696;23.360;2023-12-04T03:11:40;205.55;;;83.28;;
34741;SDS011;20968;42.696;23.360;2023-12-04T03:14:06;231.60;;;113.38;;
34741;SDS011;20968;42.696;23.360;2023-12-04T03:16:32;319.23;;;117.50;;
34741;SDS011;20968;42.696;23.360;2023-12-04T03:18:57;809.78;;;213.15;;
34741;SDS011;20968;42.696;23.360;2023-12-04T03:21:23;575.92;;;168.63;;
34741;SDS011;20968;42.696;23.360;2023-12-04T03:23:48;807.85;;;229.35;;
34741;SDS011;20968;42.696;23.360;2023-12-04T03:26:14;308.02;;;114.28;;
34741;SDS011;20968;42.696;23.360;2023-12-04T03:28:39;1110.75;;;233.07;;
34741;SDS011;20968;42.696;23.360;2023-12-04T03:31:05;824.75;;;207.70;;
34741;SDS011;20968;42.696;23.360;2023-12-04T03:33:31;778.67;;;209.85;;
34741;SDS011;20968;42.696;23.360;2023-12-04T03:35:56;909.00;;;231.27;;
34741;SDS011;20968;42.696;23.360;2023-12-04T03:38:23;946.67;;;183.75;;
34741;SDS011;20968;42.696;23.360;2023-12-04T03:40:48;1133.93;;;279.52;;
34741;SDS011;20968;42.696;23.360;2023-12-04T03:43:14;1021.53;;;264.85;;
34741;SDS011;20968;42.696;23.360;2023-12-04T03:45:39;590.10;;;191.70;;
34741;SDS011;20968;42.696;23.360;2023-12-04T03:48:05;566.72;;;170.88;;
34741;SDS011;20968;42.696;23.360;2023-12-04T03:50:30;367.65;;;148.73;;
34741;SDS011;20968;42.696;23.360;2023-12-04T03:52:56;864.90;;;182.05;;
34741;SDS011;20968;42.696;23.360;2023-12-04T03:55:22;298.73;;;97.93;;
34741;SDS011;20968;42.696;23.360;2023-12-04T03:57:47;323.35;;;107.07;;
34741;SDS011;20968;42.696;23.360;2023-12-04T04:00:13;407.58;;;167.50;;
34741;SDS011;20968;42.696;23.360;2023-12-04T04:02:39;1130.72;;;274.92;;
34741;SDS011;20968;42.696;23.360;2023-12-04T04:05:05;250.75;;;101.30;;
34741;SDS011;20968;42.696;23.360;2023-12-04T04:07:30;782.55;;;227.23;;
34741;SDS011;20968;42.696;23.360;2023-12-04T04:09:56;719.55;;;169.35;;
34741;SDS011;20968;42.696;23.360;2023-12-04T04:12:22;204.43;;;104.82;;
34741;SDS011;20968;42.696;23.360;2023-12-04T04:14:47;264.38;;;133.18;;
34741;SDS011;20968;42.696;23.360;2023-12-04T04:17:12;1176.25;;;265.55;;
34741;SDS011;20968;42.696;23.360;2023-12-04T04:19:38;623.83;;;173.90;;
34741;SDS011;20968;42.696;23.360;2023-12-04T04:22:03;1941.63;;;355.70;;
34741;SDS011;20968;42.696;23.360;2023-12-04T04:24:29;611.38;;;234.80;;
34741;SDS011;20968;42.696;23.360;2023-12-04T04:26:54;1915.18;;;312.08;;
34741;SDS011;20968;42.696;23.360;2023-12-04T04:29:20;920.47;;;335.98;;
34741;SDS011;20968;42.696;23.360;2023-12-04T04:31:45;1519.03;;;386.85;;
34741;SDS011;20968;42.696;23.360;2023-12-04T04:34:10;749.78;;;197.68;;
34741;SDS011;20968;42.696;23.360;2023-12-04T04:36:36;623.03;;;274.50;;
34741;SDS011;20968;42.696;23.360;2023-12-04T04:39:01;707.28;;;166.45;;
34741;SDS011;20968;42.696;23.360;2023-12-04T04:41:27;930.35;;;223.13;;
34741;SDS011;20968;42.696;23.360;2023-12-04T04:43:52;956.65;;;221.88;;
34741;SDS011;20968;42.696;23.360;2023-12-04T04:46:18;1522.68;;;248.73;;
34741;SDS011;20968;42.696;23.360;2023-12-04T04:48:44;357.95;;;161.30;;
34741;SDS011;20968;42.696;23.360;2023-12-04T04:51:09;321.45;;;145.52;;
34741;SDS011;20968;42.696;23.360;2023-12-04T04:53:35;1489.63;;;294.55;;
34741;SDS011;20968;42.696;23.360;2023-12-04T04:56:00;1886.18;;;351.05;;
34741;SDS011;20968;42.696;23.360;2023-12-04T04:58:26;1999.90;;;279.27;;
34741;SDS011;20968;42.696;23.360;2023-12-04T05:00:51;389.13;;;199.30;;
34741;SDS011;20968;42.696;23.360;2023-12-04T05:03:17;522.10;;;174.43;;
34741;SDS011;20968;42.696;23.360;2023-12-04T05:05:42;800.20;;;248.13;;
34741;SDS011;20968;42.696;23.360;2023-12-04T05:08:07;1453.30;;;252.63;;
34741;SDS011;20968;42.696;23.360;2023-12-04T05:10:33;434.58;;;221.77;;
34741;SDS011;20968;42.696;23.360;2023-12-04T05:12:58;195.50;;;105.05;;
34741;SDS011;20968;42.696;23.360;2023-12-04T05:15:24;449.67;;;122.00;;
34741;SDS011;20968;42.696;23.360;2023-12-04T05:17:50;162.00;;;76.22;;
34741;SDS011;20968;42.696;23.360;2023-12-04T05:20:16;318.80;;;122.10;;
34741;SDS011;20968;42.696;23.360;2023-12-04T05:22:42;851.47;;;209.20;;
34741;SDS011;20968;42.696;23.360;2023-12-04T05:25:07;726.88;;;168.68;;
34741;SDS011;20968;42.696;23.360;2023-12-04T05:27:33;135.90;;;95.50;;
34741;SDS011;20968;42.696;23.360;2023-12-04T05:29:58;541.67;;;178.48;;
34741;SDS011;20968;42.696;23.360;2023-12-04T05:32:23;931.42;;;270.35;;
34741;SDS011;20968;42.696;23.360;2023-12-04T05:34:49;313.10;;;129.57;;
34741;SDS011;20968;42.696;23.360;2023-12-04T05:37:14;551.08;;;135.73;;
34741;SDS011;20968;42.696;23.360;2023-12-04T05:39:40;1082.88;;;225.88;;
34741;SDS011;20968;42.696;23.360;2023-12-04T05:42:06;167.27;;;86.68;;
34741;SDS011;20968;42.696;23.360;2023-12-04T05:44:33;1262.53;;;226.60;;
34741;SDS011;20968;42.696;23.360;2023-12-04T05:46:58;304.65;;;174.15;;
34741;SDS011;20968;42.696;23.360;2023-12-04T05:49:24;505.88;;;155.95;;
34741;SDS011;20968;42.696;23.360;2023-12-04T05:51:49;448.08;;;143.98;;
34741;SDS011;20968;42.696;23.360;2023-12-04T05:54:15;903.65;;;192.88;;
34741;SDS011;20968;42.696;23.360;2023-12-04T05:56:40;249.27;;;79.40;;
34741;SDS011;20968;42.696;23.360;2023-12-04T05:59:05;926.92;;;188.75;;
34741;SDS011;20968;42.696;23.360;2023-12-04T06:01:31;146.93;;;92.60;;
34741;SDS011;20968;42.696;23.360;2023-12-04T06:03:56;622.22;;;154.20;;
34741;SDS011;20968;42.696;23.360;2023-12-04T06:06:22;128.75;;;55.38;;
34741;SDS011;20968;42.696;23.360;2023-12-04T06:08:47;365.65;;;127.07;;
34741;SDS011;20968;42.696;23.360;2023-12-04T06:11:13;328.35;;;174.27;;
34741;SDS011;20968;42.696;23.360;2023-12-04T06:13:39;767.20;;;191.10;;
34741;SDS011;20968;42.696;23.360;2023-12-04T06:16:04;677.05;;;188.45;;
34741;SDS011;20968;42.696;23.360;2023-12-04T06:18:30;117.82;;;82.65;;
34741;SDS011;20968;42.696;23.360;2023-12-04T06:20:56;280.55;;;122.32;;
34741;SDS011;20968;42.696;23.360;2023-12-04T06:23:21;1269.30;;;222.50;;
34741;SDS011;20968;42.696;23.360;2023-12-04T06:25:47;698.65;;;213.57;;
34741;SDS011;20968;42.696;23.360;2023-12-04T06:28:13;1064.05;;;235.82;;
34741;SDS011;20968;42.696;23.360;2023-12-04T06:30:38;272.98;;;99.07;;
34741;SDS011;20968;42.696;23.360;2023-12-04T06:33:04;464.17;;;149.48;;
34741;SDS011;20968;42.696;23.360;2023-12-04T06:35:30;80.00;;;49.50;;
34741;SDS011;20968;42.696;23.360;2023-12-04T06:37:56;172.93;;;87.15;;
34741;SDS011;20968;42.696;23.360;2023-12-04T06:40:29;690.50;;;186.43;;
34741;SDS011;20968;42.696;23.360;2023-12-04T06:42:55;440.08;;;143.52;;
34741;SDS011;20968;42.696;23.360;2023-12-04T06:45:20;312.52;;;95.38;;
34741;SDS011;20968;42.696;23.360;2023-12-04T06:47:46;1036.95;;;246.57;;
34741;SDS011;20968;42.696;23.360;2023-12-04T06:50:15;371.00;;;145.90;;
34741;SDS011;20968;42.696;23.360;2023-12-04T06:52:41;245.30;;;71.30;;
34741;SDS011;20968;42.696;23.360;2023-12-04T06:55:07;316.10;;;96.00;;
34741;SDS011;20968;42.696;23.360;2023-12-04T06:57:33;186.63;;;108.80;;
34741;SDS011;20968;42.696;23.360;2023-12-04T07:00:00;773.10;;;173.02;;
34741;SDS011;20968;42.696;23.360;2023-12-04T07:02:25;358.60;;;112.40;;
34741;SDS011;20968;42.696;23.360;2023-12-04T07:04:51;430.23;;;92.88;;
34741;SDS011;20968;42.696;23.360;2023-12-04T07:07:16;1493.28;;;220.38;;
34741;SDS011;20968;42.696;23.360;2023-12-04T07:09:42;299.45;;;95.53;;
34741;SDS011;20968;42.696;23.360;2023-12-04T07:12:07;1011.90;;;270.75;;
34741;SDS011;20968;42.696;23.360;2023-12-04T07:14:33;976.25;;;204.07;;
34741;SDS011;20968;42.696;23.360;2023-12-04T07:16:58;520.70;;;157.27;;
34741;SDS011;20968;42.696;23.360;2023-12-04T07:19:25;1182.30;;;255.55;;
34741;SDS011;20968;42.696;23.360;2023-12-04T07:21:52;434.83;;;176.20;;
34741;SDS011;20968;42.696;23.360;2023-12-04T07:24:18;386.10;;;136.32;;
34741;SDS011;20968;42.696;23.360;2023-12-04T07:26:43;832.33;;;165.20;;
34741;SDS011;20968;42.696;23.360;2023-12-04T07:29:09;234.15;;;92.63;;
34741;SDS011;20968;42.696;23.360;2023-12-04T07:31:35;397.52;;;137.20;;
34741;SDS011;20968;42.696;23.360;2023-12-04T07:34:01;197.65;;;100.25;;
34741;SDS011;20968;42.696;23.360;2023-12-04T07:36:27;874.60;;;169.32;;
34741;SDS011;20968;42.696;23.360;2023-12-04T07:38:53;657.50;;;145.02;;
34741;SDS011;20968;42.696;23.360;2023-12-04T07:41:19;385.13;;;124.88;;
34741;SDS011;20968;42.696;23.360;2023-12-04T07:43:45;790.55;;;198.70;;
34741;SDS011;20968;42.696;23.360;2023-12-04T07:46:10;1167.80;;;180.65;;
34741;SDS011;20968;42.696;23.360;2023-12-04T07:48:39;177.32;;;93.72;;
34741;SDS011;20968;42.696;23.360;2023-12-04T07:51:05;937.28;;;210.93;;
34741;SDS011;20968;42.696;23.360;2023-12-04T07:53:32;153.95;;;70.68;;
34741;SDS011;20968;42.696;23.360;2023-12-04T07:56:00;152.88;;;78.25;;
34741;SDS011;20968;42.696;23.360;2023-12-04T07:58:28;173.85;;;67.80;;
34741;SDS011;20968;42.696;23.360;2023-12-04T08:00:53;213.07;;;92.80;;
34741;SDS011;20968;42.696;23.360;2023-12-04T08:03:18;94.28;;;59.10;;
34741;SDS011;20968;42.696;23.360;2023-12-04T08:05:44;720.35;;;143.10;;
34741;SDS011;20968;42.696;23.360;2023-12-04T08:08:09;793.60;;;159.15;;
34741;SDS011;20968;42.696;23.360;2023-12-04T08:10:35;733.78;;;139.48;;
34741;SDS011;20968;42.696;23.360;2023-12-04T08:13:00;340.67;;;123.28;;
34741;SDS011;20968;42.696;23.360;2023-12-04T08:15:25;929.67;;;182.98;;
34741;SDS011;20968;42.696;23.360;2023-12-04T08:17:51;415.20;;;92.95;;
34741;SDS011;20968;42.696;23.360;2023-12-04T08:20:16;575.50;;;118.50;;
34741;SDS011;20968;42.696;23.360;2023-12-04T08:22:42;110.38;;;61.67;;
34741;SDS011;20968;42.696;23.360;2023-12-04T08:25:10;437.50;;;124.45;;
34741;SDS011;20968;42.696;23.360;2023-12-04T08:27:36;67.35;;;44.33;;
34741;SDS011;20968;42.696;23.360;2023-12-04T08:30:01;257.25;;;92.55;;
34741;SDS011;20968;42.696;23.360;2023-12-04T08:32:29;368.90;;;115.07;;
34741;SDS011;20968;42.696;23.360;2023-12-04T08:34:54;320.38;;;49.70;;
34741;SDS011;20968;42.696;23.360;2023-12-04T08:37:20;139.90;;;73.75;;
34741;SDS011;20968;42.696;23.360;2023-12-04T08:39:46;101.90;;;52.15;;
34741;SDS011;20968;42.696;23.360;2023-12-04T08:42:11;499.55;;;89.47;;
34741;SDS011;20968;42.696;23.360;2023-12-04T08:44:37;181.77;;;71.70;;
34741;SDS011;20968;42.696;23.360;2023-12-04T08:47:03;109.05;;;56.05;;
34741;SDS011;20968;42.696;23.360;2023-12-04T08:49:28;202.43;;;63.60;;
34741;SDS011;20968;42.696;23.360;2023-12-04T08:51:54;419.92;;;111.18;;
34741;SDS011;20968;42.696;23.360;2023-12-04T08:54:19;84.28;;;44.05;;
34741;SDS011;20968;42.696;23.360;2023-12-04T08:56:44;115.35;;;69.22;;
34741;SDS011;20968;42.696;23.360;2023-12-04T08:59:10;128.07;;;60.13;;
34741;SDS011;20968;42.696;23.360;2023-12-04T09:01:35;89.53;;;40.17;;
34741;SDS011;20968;42.696;23.360;2023-12-04T09:04:01;416.83;;;54.15;;
34741;SDS011;20968;42.696;23.360;2023-12-04T09:06:27;75.05;;;41.88;;
34741;SDS011;20968;42.696;23.360;2023-12-04T09:08:52;168.25;;;72.18;;
34741;SDS011;20968;42.696;23.360;2023-12-04T09:11:17;101.30;;;37.08;;
34741;SDS011;20968;42.696;23.360;2023-12-04T09:13:43;75.15;;;35.80;;
34741;SDS011;20968;42.696;23.360;2023-12-04T09:16:09;101.10;;;38.08;;
34741;SDS011;20968;42.696;23.360;2023-12-04T09:18:35;75.10;;;42.72;;
34741;SDS011;20968;42.696;23.360;2023-12-04T09:21:00;72.38;;;35.67;;
34741;SDS011;20968;42.696;23.360;2023-12-04T09:23:26;128.70;;;40.63;;
34741;SDS011;20968;42.696;23.360;2023-12-04T09:25:51;68.88;;;33.90;;
34741;SDS011;20968;42.696;23.360;2023-12-04T09:28:16;91.72;;;33.92;;
34741;SDS011;20968;42.696;23.360;2023-12-04T09:30:42;67.00;;;43.17;;
34741;SDS011;20968;42.696;23.360;2023-12-04T09:33:08;69.82;;;35.90;;
34741;SDS011;20968;42.696;23.360;2023-12-04T09:35:33;69.80;;;35.58;;
34741;SDS011;20968;42.696;23.360;2023-12-04T09:37:58;71.28;;;33.28;;
34741;SDS011;20968;42.696;23.360;2023-12-04T09:40:24;71.65;;;35.47;;
34741;SDS011;20968;42.696;23.360;2023-12-04T09:42:50;66.72;;;40.38;;
34741;SDS011;20968;42.696;23.360;2023-12-04T09:45:16;73.00;;;34.65;;
34741;SDS011;20968;42.696;23.360;2023-12-04T09:47:43;80.97;;;38.92;;
34741;SDS011;20968;42.696;23.360;2023-12-04T09:50:10;77.45;;;35.97;;
34741;SDS011;20968;42.696;23.360;2023-12-04T09:52:36;64.20;;;29.17;;
34741;SDS011;20968;42.696;23.360;2023-12-04T09:55:01;67.22;;;29.25;;
34741;SDS011;20968;42.696;23.360;2023-12-04T09:57:27;74.63;;;37.78;;
34741;SDS011;20968;42.696;23.360;2023-12-04T09:59:53;60.63;;;30.83;;
34741;SDS011;20968;42.696;23.360;2023-12-04T10:02:19;63.92;;;30.05;;
34741;SDS011;20968;42.696;23.360;2023-12-04T10:04:45;93.75;;;39.50;;
34741;SDS011;20968;42.696;23.360;2023-12-04T10:07:10;69.18;;;33.10;;
34741;SDS011;20968;42.696;23.360;2023-12-04T10:09:36;66.38;;;31.95;;
34741;SDS011;20968;42.696;23.360;2023-12-04T10:12:01;68.43;;;35.67;;
34741;SDS011;20968;42.696;23.360;2023-12-04T10:14:27;80.30;;;40.83;;
34741;SDS011;20968;42.696;23.360;2023-12-04T10:16:52;64.15;;;33.15;;
34741;SDS011;20968;42.696;23.360;2023-12-04T10:21:44;68.68;;;29.30;;
34741;SDS011;20968;42.696;23.360;2023-12-04T10:24:11;66.18;;;33.75;;
34741;SDS011;20968;42.696;23.360;2023-12-04T10:26:37;67.15;;;30.67;;
34741;SDS011;20968;42.696;23.360;2023-12-04T10:29:03;69.15;;;28.77;;
34741;SDS011;20968;42.696;23.360;2023-12-04T10:31:33;65.70;;;30.95;;
34741;SDS011;20968;42.696;23.360;2023-12-04T10:33:59;63.60;;;35.85;;
34741;SDS011;20968;42.696;23.360;2023-12-04T10:36:25;66.65;;;37.65;;
34741;SDS011;20968;42.696;23.360;2023-12-04T10:38:59;74.20;;;43.42;;
34741;SDS011;20968;42.696;23.360;2023-12-04T10:41:25;69.78;;;28.13;;
34741;SDS011;20968;42.696;23.360;2023-12-04T10:43:51;69.88;;;36.90;;
34741;SDS011;20968;42.696;23.360;2023-12-04T10:46:16;77.60;;;35.03;;
34741;SDS011;20968;42.696;23.360;2023-12-04T10:48:46;78.47;;;38.50;;
34741;SDS011;20968;42.696;23.360;2023-12-04T10:51:12;72.88;;;33.63;;
34741;SDS011;20968;42.696;23.360;2023-12-04T10:53:38;69.93;;;35.08;;
34741;SDS011;20968;42.696;23.360;2023-12-04T10:56:09;74.03;;;37.20;;
34741;SDS011;20968;42.696;23.360;2023-12-04T10:58:39;71.75;;;35.80;;
34741;SDS011;20968;42.696;23.360;2023-12-04T11:01:06;68.05;;;33.03;;
34741;SDS011;20968;42.696;23.360;2023-12-04T11:03:43;66.03;;;33.08;;
34741;SDS011;20968;42.696;23.360;2023-12-04T11:06:10;80.07;;;36.38;;
34741;SDS011;20968;42.696;23.360;2023-12-04T11:08:37;69.07;;;31.73;;
34741;SDS011;20968;42.696;23.360;2023-12-04T11:11:08;67.00;;;31.48;;
34741;SDS011;20968;42.696;23.360;2023-12-04T11:13:39;68.68;;;29.08;;
34741;SDS011;20968;42.696;23.360;2023-12-04T11:16:51;66.20;;;29.00;;
34741;SDS011;20968;42.696;23.360;2023-12-04T11:22:00;70.55;;;30.92;;
34741;SDS011;20968;42.696;23.360;2023-12-04T11:24:27;68.03;;;29.67;;
34741;SDS011;20968;42.696;23.360;2023-12-04T11:26:52;77.55;;;32.70;;
34741;SDS011;20968;42.696;23.360;2023-12-04T11:29:19;69.05;;;29.45;;
34741;SDS011;20968;42.696;23.360;2023-12-04T11:31:45;74.93;;;30.02;;
34741;SDS011;20968;42.696;23.360;2023-12-04T11:34:11;108.18;;;41.95;;
34741;SDS011;20968;42.696;23.360;2023-12-04T11:36:37;97.95;;;47.60;;
34741;SDS011;20968;42.696;23.360;2023-12-04T11:39:03;72.15;;;34.50;;
34741;SDS011;20968;42.696;23.360;2023-12-04T11:41:29;68.68;;;28.98;;
34741;SDS011;20968;42.696;23.360;2023-12-04T11:43:55;71.53;;;29.77;;
34741;SDS011;20968;42.696;23.360;2023-12-04T11:46:22;68.03;;;28.13;;
34741;SDS011;20968;42.696;23.360;2023-12-04T11:48:50;69.45;;;28.92;;
34741;SDS011;20968;42.696;23.360;2023-12-04T11:54:14;69.40;;;26.95;;
34741;SDS011;20968;42.696;23.360;2023-12-04T11:59:24;70.13;;;27.08;;
34741;SDS011;20968;42.696;23.360;2023-12-04T12:01:50;67.60;;;27.85;;
34741;SDS011;20968;42.696;23.360;2023-12-04T12:04:16;68.32;;;25.75;;
34741;SDS011;20968;42.696;23.360;2023-12-04T12:06:43;71.50;;;28.52;;
34741;SDS011;20968;42.696;23.360;2023-12-04T12:09:09;66.65;;;24.05;;
34741;SDS011;20968;42.696;23.360;2023-12-04T12:11:34;70.93;;;25.17;;
34741;SDS011;20968;42.696;23.360;2023-12-04T12:14:00;86.95;;;39.67;;
34741;SDS011;20968;42.696;23.360;2023-12-04T12:16:26;69.65;;;31.10;;
34741;SDS011;20968;42.696;23.360;2023-12-04T12:18:52;70.15;;;33.15;;
34741;SDS011;20968;42.696;23.360;2023-12-04T12:21:18;68.20;;;31.20;;
34741;SDS011;20968;42.696;23.360;2023-12-04T12:23:44;72.20;;;29.27;;
34741;SDS011;20968;42.696;23.360;2023-12-04T12:26:09;74.38;;;27.70;;
34741;SDS011;20968;42.696;23.360;2023-12-04T12:28:35;70.88;;;28.33;;
34741;SDS011;20968;42.696;23.360;2023-12-04T12:31:01;72.68;;;28.73;;
34741;SDS011;20968;42.696;23.360;2023-12-04T12:33:28;76.50;;;33.40;;
34741;SDS011;20968;42.696;23.360;2023-12-04T12:35:53;82.82;;;33.95;;
34741;SDS011;20968;42.696;23.360;2023-12-04T12:38:19;93.15;;;35.42;;
34741;SDS011;20968;42.696;23.360;2023-12-04T12:40:45;73.85;;;32.97;;
34741;SDS011;20968;42.696;23.360;2023-12-04T12:43:11;72.50;;;30.30;;
34741;SDS011;20968;42.696;23.360;2023-12-04T12:45:40;73.68;;;27.20;;
34741;SDS011;20968;42.696;23.360;2023-12-04T12:48:05;69.85;;;30.30;;
34741;SDS011;20968;42.696;23.360;2023-12-04T12:50:31;70.55;;;29.20;;
34741;SDS011;20968;42.696;23.360;2023-12-04T12:52:56;69.80;;;31.83;;
34741;SDS011;20968;42.696;23.360;2023-12-04T12:55:26;74.70;;;31.38;;
34741;SDS011;20968;42.696;23.360;2023-12-04T12:57:52;75.88;;;31.90;;
34741;SDS011;20968;42.696;23.360;2023-12-04T13:00:20;83.38;;;32.97;;
34741;SDS011;20968;42.696;23.360;2023-12-04T13:02:47;107.65;;;47.05;;
34741;SDS011;20968;42.696;23.360;2023-12-04T13:05:13;118.78;;;54.55;;
34741;SDS011;20968;42.696;23.360;2023-12-04T13:07:38;172.18;;;77.65;;
34741;SDS011;20968;42.696;23.360;2023-12-04T13:10:04;154.77;;;69.95;;
34741;SDS011;20968;42.696;23.360;2023-12-04T13:12:30;94.38;;;42.38;;
34741;SDS011;20968;42.696;23.360;2023-12-04T13:14:57;86.82;;;41.88;;
34741;SDS011;20968;42.696;23.360;2023-12-04T13:17:22;80.38;;;35.53;;
34741;SDS011;20968;42.696;23.360;2023-12-04T13:19:47;86.65;;;39.17;;
34741;SDS011;20968;42.696;23.360;2023-12-04T13:22:13;100.15;;;43.15;;
34741;SDS011;20968;42.696;23.360;2023-12-04T13:24:38;129.05;;;58.65;;
34741;SDS011;20968;42.696;23.360;2023-12-04T13:27:04;96.80;;;46.75;;
34741;SDS011;20968;42.696;23.360;2023-12-04T13:29:30;107.53;;;54.03;;
34741;SDS011;20968;42.696;23.360;2023-12-04T13:31:55;92.63;;;44.13;;
34741;SDS011;20968;42.696;23.360;2023-12-04T13:34:21;97.90;;;47.95;;
34741;SDS011;20968;42.696;23.360;2023-12-04T13:36:47;191.48;;;80.28;;
34741;SDS011;20968;42.696;23.360;2023-12-04T13:39:12;85.65;;;40.78;;
34741;SDS011;20968;42.696;23.360;2023-12-04T13:41:58;84.65;;;40.67;;
34741;SDS011;20968;42.696;23.360;2023-12-04T13:44:42;84.50;;;32.00;;
34741;SDS011;20968;42.696;23.360;2023-12-04T13:47:07;70.72;;;33.50;;
34741;SDS011;20968;42.696;23.360;2023-12-04T13:49:32;86.07;;;46.35;;
34741;SDS011;20968;42.696;23.360;2023-12-04T13:51:58;165.93;;;75.32;;
34741;SDS011;20968;42.696;23.360;2023-12-04T13:54:24;109.93;;;51.15;;
34741;SDS011;20968;42.696;23.360;2023-12-04T13:57:08;347.98;;;141.07;;
34741;SDS011;20968;42.696;23.360;2023-12-04T13:59:33;244.10;;;96.60;;